Warning: Javascript must be enabled to use all the features on this page!


Page Loading - Please Wait...

Click to hideNews Bulletins

Peak Streamflow for Virginia

Click to hide state-specific text

USGS 02029000 JAMES RIVER AT SCOTTSVILLE, VA

Albemarle County, Virginia
Hydrologic Unit Code 02080203
Latitude  37°47'50", Longitude  78°29'30" NAD27
Drainage area 4,581  square miles
Gage datum 252.47 feet above NAVD88
Output formats
Table
Graph
Tab-separated file
peakfq (watstore) format
Reselect output format
Water
Year
Date Gage
Height
(feet)
Stream-
flow
(cfs)
1871 1870-10 30.70Bd 215,0007,Bd
1878 1877-11 27.90Bd 160,0007,Bd
1913 1913-03 25.16Bd 121,0007,Bd
1925 1924-10-01   80,000
1926 1926-01-20 15.80 42,300
1927 1927-02-20 15.68 41,900
1928 1928-08-17 20.92 75,600
1929 1929-02-28 15.90 44,700
1930 1929-11-19 16.12 45,800
1931 1931-08-23 10.73 21,100
1932 1932-03-30 13.14 31,400
1933 1932-10-18 18.45 59,500
1934 1934-03-29 14.70 38,800
1935 1935-09-06 23.06 93,400
1936 1936-03-19 25.46 126,000
1937 1937-04-26 18.80 62,200
1938 1937-10-20 22.33 87,400
1939 1939-08-19 19.71 68,400
1940 1940-08-16 25.84 130,000
1941 1941-07-09 12.07 27,100
1942 1942-05-23 21.44 80,600
1943 1942-10-16 23.00 95,200
1944 1944-09-19 26.00 133,000
1945 1945-09-18 18.00 57,000
1946 1946-01-09 15.30 41,200
1947 1947-03-16 13.68 33,200
1948 1948-04-01 18.40 59,600
1949 1948-12-04 22.90 94,200
1950 1950-09-11 20.43 73,300
1951 1950-12-09 19.17 64,900
1952 1952-03-13 17.59 54,500
1953 1953-03-25 19.48 67,000
1954 1954-03-03 18.90 62,900
1955 1955-03-07 19.94 70,000
1956 1956-04-18 10.61 20,400
1957 1957-04-07 19.14 64,200
1958 1958-04-01 15.88 44,500
1959 1959-06-03 12.81 29,300
1960 1960-04-01 19.10 64,200
1961 1961-02-27 12.94 29,700
1962 1961-10-22 18.88 62,900
1963 1963-03-14 20.82 76,200
1964 1964-03-07 13.58 32,700
1965 1965-02-08 17.19 52,100
1966 1966-02-15 15.63 42,900
1967 1967-03-09 19.07 64,000
1968 1968-03-14 12.11 25,900
1969 1969-08-20 30.00 188,000
1970 1970-01-01 19.05 63,900
1971 1971-06-01 19.12 64,400
1972 1972-06-22 34.02 301,000
1973 1972-10-06 23.24 97,600
1974 1973-12-28 21.12 78,500
1975 1975-03-19 24.63 114,000
1976 1976-01-02 15.55 42,500
1977 1977-04-06 19.55 67,400
1978 1978-01-27 22.23 88,400
1979 1979-02-26 22.63 92,300
1980 1980-04-15 18.56 58,7006
1981 1981-05-30 12.74 28,0006
1982 1982-06-14 20.08 69,8006
1983 1983-04-10 17.37 51,0006
1984 1984-02-15 19.65 66,6006
1985 1985-08-19 13.03 29,2006
1986 1985-11-06 31.77 243,0006
1987 1987-04-17 26.17 133,0006
1988 1988-01-21 10.68 20,2006
1989 1989-05-06 20.35 71,9006
1990 1990-01-02 15.20 38,8006
1991 1990-10-23 19.23 63,5006
1992 1992-04-23 25.31 123,0006
1993 1993-03-05 20.73 75,2006
1994 1994-03-29 18.87 60,9006
1995 1995-01-16 21.71 84,3006
1996 1996-09-07 28.25 167,0006
1997 1996-12-03 19.83 68,0006
1998 1998-01-09 21.13 78,8006
1999 1999-09-30 20.38 72,2006
2000 2000-04-19 12.65 27,6006
2001 2001-05-24 12.24 26,0006
2002 2002-04-24 10.69 20,2006
2003 2003-02-24 22.58 92,8006
2004 2004-09-30 20.68 74,7006
2005 2005-03-30 14.33 34,7006
2006 2006-06-27 20.26 71,2006
2007 2007-04-17 17.40 51,2006
2008 2008-04-29 13.31 30,3006
2009 2009-05-18 11.41 22,9006
2010 2010-01-25 22.10 88,5006
2011 2011-04-18 18.48 59,1006
2012 2011-12-09 17.28 51,7006
2013 2013-05-09 19.39 65,1006
2014 2014-05-16 16.38 46,5006
2015 2015-03-06 15.91 43,9006
2016 2016-06-25 16.36 46,4006
2017 2017-05-26 18.02 56,2006
2018 2018-04-17 18.02 56,2006
2019 2019-02-24 19.49 65,9006
2020 2020-04-13 18.45 59,1006
?
  Peak Gage-Height Qualification Codes.
?
  Peak Streamflow Qualification Codes.